Time;durP1;ratioP1;P1;durP2;ratioP2;P2;SDS_P1;SDS_P2;PMS_P1;PMS_P2;Temp;Humidity;BMP_temperature;BMP_pressure;BME280_temperature;BME280_humidity;BME280_pressure;Samples;Min_cycle;Max_cycle;Signal;HPM_P1;HPM_P2
2023/08/20 00:01:26;;;;;;;9.80;8.80;;;20.90;99.90;;;;;;5000125;28;20486;-83
2023/08/20 00:03:54;;;;;;;9.83;8.87;;;20.90;99.90;;;;;;4999875;28;20462;-82
2023/08/20 00:06:23;;;;;;;9.43;8.43;;;20.90;99.90;;;;;;4999265;28;20569;-83
2023/08/20 00:08:50;;;;;;;9.43;8.40;;;20.80;99.90;;;;;;5000139;28;20890;-83
2023/08/20 00:11:17;;;;;;;10.17;8.10;;;20.80;99.90;;;;;;4999515;28;20442;-83
2023/08/20 00:13:44;;;;;;;8.07;7.27;;;20.80;99.90;;;;;;5002719;28;20482;-83
2023/08/20 00:16:11;;;;;;;8.73;7.90;;;20.80;99.90;;;;;;5000297;28;20471;-83
2023/08/20 00:18:39;;;;;;;9.03;7.30;;;20.80;99.90;;;;;;5018614;28;20485;-84
2023/08/20 00:21:07;;;;;;;9.03;8.10;;;20.80;99.90;;;;;;5018727;28;20582;-83
2023/08/20 00:23:37;;;;;;;8.67;7.87;;;20.80;99.90;;;;;;5019630;28;20462;-83
2023/08/20 00:26:04;;;;;;;8.50;7.70;;;20.80;99.90;;;;;;5019257;28;20508;-83
2023/08/20 00:28:33;;;;;;;9.20;8.23;;;20.80;99.90;;;;;;5019320;28;20488;-83
2023/08/20 00:31:00;;;;;;;9.00;8.10;;;20.80;99.90;;;;;;5020895;28;20457;-85
2023/08/20 00:33:27;;;;;;;10.10;8.27;;;20.80;99.90;;;;;;5022306;28;20458;-83
2023/08/20 00:35:54;;;;;;;9.03;8.13;;;20.70;99.90;;;;;;5020473;28;20492;-83
2023/08/20 00:38:21;;;;;;;8.60;7.80;;;20.70;99.90;;;;;;5021015;28;20458;-83
2023/08/20 00:40:49;;;;;;;10.07;7.33;;;20.70;99.90;;;;;;5020430;28;20576;-85
2023/08/20 00:43:16;;;;;;;9.90;7.70;;;20.70;99.90;;;;;;5021658;28;20465;-84
2023/08/20 00:45:43;;;;;;;9.97;8.20;;;20.70;99.90;;;;;;5004224;28;20513;-83
2023/08/20 00:48:11;;;;;;;8.23;7.50;;;20.60;99.90;;;;;;4999779;28;20443;-83
2023/08/20 00:50:38;;;;;;;7.67;6.90;;;20.60;99.90;;;;;;4999118;28;20481;-83
2023/08/20 00:53:06;;;;;;;16.43;9.07;;;20.60;99.90;;;;;;4999797;28;20538;-82
2023/08/20 00:55:33;;;;;;;9.77;8.47;;;20.50;99.90;;;;;;4997760;28;20490;-83
2023/08/20 00:58:01;;;;;;;8.20;7.40;;;20.50;99.90;;;;;;4998787;28;20450;-82
2023/08/20 01:00:28;;;;;;;9.57;8.67;;;20.50;99.90;;;;;;4998050;28;20483;-82
2023/08/20 01:02:55;;;;;;;13.80;8.80;;;20.50;99.90;;;;;;4999085;28;20454;-83
2023/08/20 01:05:22;;;;;;;10.10;9.03;;;20.50;99.90;;;;;;4998378;28;20485;-83
2023/08/20 01:08:04;;;;;;;8.90;8.00;;;20.50;99.90;;;;;;4998387;28;20553;-83
2023/08/20 01:10:40;;;;;;;9.50;8.60;;;20.40;99.90;;;;;;4997222;28;21108;-82
2023/08/20 01:13:09;;;;;;;10.17;9.13;;;20.40;99.90;;;;;;4997607;28;20454;-83
2023/08/20 01:15:36;;;;;;;8.83;8.00;;;20.50;99.90;;;;;;5001199;28;20478;-83
2023/08/20 01:18:03;;;;;;;9.70;8.67;;;20.50;99.90;;;;;;5016729;28;20830;-82
2023/08/20 01:20:36;;;;;;;11.20;9.50;;;20.50;99.90;;;;;;5016915;28;20587;-83
2023/08/20 01:23:41;;;;;;;12.17;9.23;;;20.50;99.90;;;;;;5018948;28;20896;-82
2023/08/20 01:26:17;;;;;;;12.17;10.50;;;20.50;99.90;;;;;;5019313;28;20476;-82
2023/08/20 01:28:46;;;;;;;12.10;10.90;;;20.50;99.90;;;;;;5019318;28;20539;-82
2023/08/20 01:31:15;;;;;;;12.20;11.00;;;20.60;99.90;;;;;;5008555;28;20458;-82
2023/08/20 01:33:42;;;;;;;13.70;12.03;;;20.60;99.90;;;;;;5000658;28;20457;-82
2023/08/20 01:36:10;;;;;;;12.77;11.47;;;20.70;99.90;;;;;;5055322;23;20495;-83
2023/08/20 01:38:37;;;;;;;14.70;11.27;;;20.70;99.90;;;;;;5053661;28;20443;-85
2023/08/20 01:41:06;;;;;;;11.73;10.53;;;20.70;99.90;;;;;;5044826;28;20477;-84
2023/08/20 01:43:33;;;;;;;12.33;11.13;;;20.80;99.90;;;;;;5036272;28;20481;-85
2023/08/20 01:46:01;;;;;;;12.43;11.20;;;20.80;99.90;;;;;;5047150;28;21014;-83
2023/08/20 01:48:28;;;;;;;14.63;12.23;;;20.80;99.90;;;;;;5052490;28;20521;-83
2023/08/20 01:50:55;;;;;;;13.17;11.43;;;20.70;99.90;;;;;;5051973;28;20951;-83
2023/08/20 01:53:22;;;;;;;13.47;11.60;;;20.70;99.90;;;;;;5048288;28;20452;-83
2023/08/20 01:55:48;;;;;;;12.80;11.40;;;20.70;99.90;;;;;;5056217;28;20479;-85
2023/08/20 01:58:15;;;;;;;12.57;11.27;;;20.70;99.90;;;;;;5044733;28;20452;-85
2023/08/20 02:00:42;;;;;;;14.33;11.67;;;20.70;99.90;;;;;;5039831;28;20476;-84
2023/08/20 02:03:10;;;;;;;13.73;11.77;;;20.70;99.90;;;;;;5053662;28;20445;-85
2023/08/20 02:05:37;;;;;;;14.30;12.00;;;20.60;99.90;;;;;;5048429;28;20472;-84
2023/08/20 02:08:05;;;;;;;12.50;11.20;;;20.60;99.90;;;;;;5058436;28;20538;-83
2023/08/20 02:10:32;;;;;;;13.03;10.30;;;20.60;99.90;;;;;;5058162;28;20448;-85
2023/08/20 02:12:58;;;;;;;13.40;12.10;;;20.60;99.90;;;;;;5058601;28;20460;-84
2023/08/20 02:15:26;;;;;;;13.97;10.67;;;20.60;99.90;;;;;;5057581;28;21030;-85
2023/08/20 02:17:52;;;;;;;13.27;11.97;;;20.60;99.90;;;;;;5058029;28;20498;-83
2023/08/20 02:20:20;;;;;;;12.27;11.07;;;20.60;99.90;;;;;;5058526;28;20447;-85
2023/08/20 02:22:47;;;;;;;14.03;12.53;;;20.50;99.90;;;;;;5061115;28;20444;-85
2023/08/20 02:25:14;;;;;;;12.63;11.37;;;20.50;99.90;;;;;;5056303;28;20472;-83
2023/08/20 02:27:41;;;;;;;13.83;11.60;;;20.50;99.90;;;;;;5053482;28;20454;-81
2023/08/20 02:30:09;;;;;;;14.40;13.00;;;20.50;99.90;;;;;;5053994;28;20456;-83
2023/08/20 02:32:35;;;;;;;14.20;12.27;;;20.40;99.90;;;;;;5053481;28;20448;-83
2023/08/20 02:35:05;;;;;;;13.83;12.40;;;20.40;99.90;;;;;;5053028;28;20513;-83
2023/08/20 02:37:33;;;;;;;12.07;10.70;;;20.50;99.90;;;;;;5053660;28;20454;-84
2023/08/20 02:40:00;;;;;;;14.40;11.93;;;20.40;99.90;;;;;;5053344;28;20799;-82
2023/08/20 02:42:27;;;;;;;13.63;11.20;;;20.50;99.90;;;;;;5053523;28;20868;-82
2023/08/20 02:44:53;;;;;;;13.67;12.27;;;20.50;99.90;;;;;;5053066;28;20563;-82
2023/08/20 02:47:20;;;;;;;16.60;11.90;;;20.50;99.90;;;;;;5053366;28;20452;-83
2023/08/20 02:49:47;;;;;;;17.27;13.70;;;20.50;99.90;;;;;;5053684;28;20456;-83
2023/08/20 02:52:14;;;;;;;16.20;13.43;;;20.50;99.90;;;;;;5053157;28;20452;-82
2023/08/20 02:54:42;;;;;;;14.00;11.90;;;20.50;99.90;;;;;;5053616;28;20448;-81
2023/08/20 02:57:08;;;;;;;13.80;12.47;;;20.50;99.90;;;;;;5053221;28;20459;-83
2023/08/20 02:59:35;;;;;;;14.57;12.30;;;20.50;99.90;;;;;;5053068;28;21116;-84
2023/08/20 03:02:03;;;;;;;15.10;12.57;;;20.60;99.90;;;;;;5053116;28;20514;-83
2023/08/20 03:04:30;;;;;;;14.47;12.43;;;20.50;99.90;;;;;;5053354;28;20498;-82
2023/08/20 03:06:56;;;;;;;14.30;12.20;;;20.50;99.90;;;;;;5052791;28;20841;-83
2023/08/20 03:09:23;;;;;;;15.03;12.53;;;20.50;99.90;;;;;;5053561;28;20444;-83
2023/08/20 03:11:51;;;;;;;13.50;12.07;;;20.50;99.90;;;;;;5053517;28;20472;-82
2023/08/20 03:14:18;;;;;;;16.67;12.30;;;20.50;99.90;;;;;;5053711;28;20454;-82
2023/08/20 03:16:45;;;;;;;13.50;12.10;;;20.40;99.90;;;;;;5053031;28;20479;-82
2023/08/20 03:19:12;;;;;;;15.03;11.83;;;20.40;99.90;;;;;;5053781;28;20958;-84
2023/08/20 03:21:40;;;;;;;12.73;10.57;;;20.40;99.90;;;;;;5053340;28;20833;-82
2023/08/20 03:24:08;;;;;;;13.00;11.10;;;20.40;99.90;;;;;;5059740;28;20839;-83
2023/08/20 03:26:35;;;;;;;12.93;11.73;;;20.30;99.90;;;;;;5060233;28;20477;-85
2023/08/20 03:29:04;;;;;;;12.53;11.23;;;20.40;99.90;;;;;;5060487;28;20458;-81
2023/08/20 03:31:30;;;;;;;15.43;12.30;;;20.30;99.90;;;;;;5060056;28;20974;-84
2023/08/20 03:33:57;;;;;;;13.00;11.70;;;20.30;99.90;;;;;;5060390;28;20443;-83
2023/08/20 03:36:24;;;;;;;12.10;10.90;;;20.30;99.90;;;;;;5059882;28;20571;-85
2023/08/20 03:38:51;;;;;;;13.80;11.00;;;20.30;99.90;;;;;;5059947;28;20459;-85
2023/08/20 03:41:18;;;;;;;12.10;10.70;;;20.30;99.90;;;;;;5059563;28;20487;-85
2023/08/20 03:43:44;;;;;;;13.87;12.03;;;20.30;99.90;;;;;;5060625;28;20447;-86
2023/08/20 03:46:12;;;;;;;13.60;11.80;;;20.30;99.90;;;;;;5060210;28;20464;-86
2023/08/20 03:48:39;;;;;;;13.23;11.27;;;20.30;99.90;;;;;;5060159;28;20448;-84
2023/08/20 03:51:06;;;;;;;14.00;12.60;;;20.30;99.90;;;;;;5060039;28;20454;-83
2023/08/20 03:53:33;;;;;;;14.60;13.13;;;20.30;99.90;;;;;;5060259;28;20451;-85
2023/08/20 03:56:00;;;;;;;13.57;11.40;;;20.30;99.90;;;;;;5060190;28;20975;-86
2023/08/20 03:58:26;;;;;;;14.00;12.10;;;20.30;99.90;;;;;;5060104;28;20451;-84
2023/08/20 04:00:53;;;;;;;14.67;12.07;;;20.30;99.90;;;;;;5060755;28;20475;-84
2023/08/20 04:03:21;;;;;;;13.40;11.70;;;20.30;99.90;;;;;;5060876;28;20451;-85
2023/08/20 04:05:50;;;;;;;14.40;11.47;;;20.30;99.90;;;;;;5061421;28;20502;-84
2023/08/20 04:08:17;;;;;;;12.30;11.10;;;20.30;99.90;;;;;;5060384;28;20451;-85
2023/08/20 04:10:45;;;;;;;12.40;11.03;;;20.30;99.90;;;;;;5060251;28;20451;-86
2023/08/20 04:13:13;;;;;;;15.47;11.10;;;20.30;99.90;;;;;;5061910;28;20448;-86
2023/08/20 04:15:40;;;;;;;13.53;12.13;;;20.30;99.90;;;;;;5060769;28;20839;-85
2023/08/20 04:18:07;;;;;;;13.57;12.23;;;20.20;99.90;;;;;;5060147;28;20479;-84
2023/08/20 04:20:35;;;;;;;13.77;12.30;;;20.20;99.90;;;;;;5060107;28;20477;-86
2023/08/20 04:23:02;;;;;;;16.20;12.97;;;20.20;99.90;;;;;;5060994;28;20565;-86
2023/08/20 04:25:29;;;;;;;15.80;14.10;;;20.20;99.90;;;;;;5060993;28;20550;-85
2023/08/20 04:27:56;;;;;;;14.40;12.20;;;20.20;99.90;;;;;;5059920;28;20839;-86
2023/08/20 04:30:23;;;;;;;16.60;13.43;;;20.20;99.90;;;;;;5058621;28;20460;-85
2023/08/20 04:32:49;;;;;;;16.60;14.13;;;20.20;99.90;;;;;;5058877;28;20478;-84
2023/08/20 04:35:16;;;;;;;14.80;12.93;;;20.20;99.90;;;;;;5054620;28;20480;-85
2023/08/20 04:37:44;;;;;;;20.63;14.80;;;20.20;99.90;;;;;;5055610;28;20448;-84
2023/08/20 04:40:12;;;;;;;16.97;12.77;;;20.20;99.90;;;;;;5055648;28;20447;-85
2023/08/20 04:42:39;;;;;;;20.53;16.67;;;20.20;99.90;;;;;;5054866;28;20491;-84
2023/08/20 04:45:07;;;;;;;18.50;16.53;;;20.20;99.90;;;;;;5054578;28;20482;-82
2023/08/20 04:47:33;;;;;;;27.20;19.40;;;20.20;99.90;;;;;;5055618;28;20983;-83
2023/08/20 04:50:01;;;;;;;28.83;21.67;;;20.20;99.90;;;;;;5055775;28;20854;-83
2023/08/20 04:52:27;;;;;;;34.33;25.13;;;20.30;99.90;;;;;;5055572;28;20459;-84
2023/08/20 04:54:56;;;;;;;31.90;23.07;;;20.30;99.90;;;;;;5055500;28;20444;-84
2023/08/20 04:57:23;;;;;;;35.40;25.43;;;20.30;99.90;;;;;;5054439;28;20448;-83
2023/08/20 04:59:50;;;;;;;35.10;24.40;;;20.40;99.90;;;;;;5055195;28;20463;-82
2023/08/20 05:02:16;;;;;;;34.33;24.50;;;20.40;99.90;;;;;;5055666;28;20511;-83
2023/08/20 05:04:43;;;;;;;35.00;27.10;;;20.50;99.90;;;;;;5055445;28;20956;-82
2023/08/20 05:07:10;;;;;;;37.33;27.63;;;20.60;99.90;;;;;;5054903;28;20458;-83
2023/08/20 05:09:37;;;;;;;37.07;28.20;;;20.60;99.90;;;;;;5055186;28;20440;-85
2023/08/20 05:12:05;;;;;;;31.80;26.33;;;20.60;99.90;;;;;;5055486;28;20448;-83
2023/08/20 05:14:32;;;;;;;36.67;29.20;;;20.70;99.90;;;;;;5055096;28;20452;-85
2023/08/20 05:16:59;;;;;;;32.03;26.40;;;20.70;99.90;;;;;;5054939;28;20460;-84
2023/08/20 05:19:26;;;;;;;33.93;29.00;;;20.80;99.90;;;;;;5056008;28;20452;-82
2023/08/20 05:21:55;;;;;;;36.60;29.33;;;20.70;99.90;;;;;;5059179;28;20923;-84
2023/08/20 05:24:22;;;;;;;38.90;29.00;;;20.70;99.90;;;;;;5055847;28;20498;-84
2023/08/20 05:27:05;;;;;;;36.40;28.57;;;20.70;99.90;;;;;;5056946;28;20471;-84
2023/08/20 05:29:32;;;;;;;30.87;26.70;;;20.70;99.90;;;;;;5055253;28;20474;-82
2023/08/20 05:31:59;;;;;;;32.33;28.70;;;20.70;99.90;;;;;;5055773;28;20448;-86
2023/08/20 05:34:25;;;;;;;46.50;33.50;;;20.70;99.90;;;;;;5055998;28;20444;-84
2023/08/20 05:36:52;;;;;;;32.80;26.93;;;20.70;99.90;;;;;;5054701;28;20483;-82
2023/08/20 05:39:19;;;;;;;32.83;29.20;;;20.70;99.90;;;;;;5061944;28;20444;-85
2023/08/20 05:41:46;;;;;;;33.77;28.47;;;20.80;99.90;;;;;;5055579;28;21019;-84
2023/08/20 05:44:14;;;;;;;36.13;28.30;;;20.80;99.90;;;;;;5055778;28;20447;-85
2023/08/20 05:46:41;;;;;;;31.73;27.73;;;20.80;99.90;;;;;;5056588;28;20506;-83
2023/08/20 05:49:08;;;;;;;29.80;26.27;;;20.90;99.90;;;;;;5055700;28;20454;-83
2023/08/20 05:51:34;;;;;;;36.53;30.50;;;20.80;99.90;;;;;;5055548;28;20451;-83
2023/08/20 05:54:03;;;;;;;34.47;28.37;;;20.90;99.90;;;;;;5055527;28;20454;-85
2023/08/20 05:56:30;;;;;;;34.80;27.97;;;20.90;99.90;;;;;;5053537;28;20555;-85
2023/08/20 05:58:57;;;;;;;33.23;29.23;;;20.90;99.90;;;;;;5041511;28;20870;-85
2023/08/20 06:01:25;;;;;;;50.00;34.67;;;21.00;99.90;;;;;;5050785;28;20463;-87
2023/08/20 06:03:51;;;;;;;34.40;28.00;;;20.90;99.90;;;;;;5058597;28;20462;-84
2023/08/20 06:06:18;;;;;;;31.60;26.27;;;21.00;99.90;;;;;;5058018;28;20468;-86
2023/08/20 06:08:45;;;;;;;38.30;29.20;;;21.00;99.90;;;;;;5059364;28;20532;-85
2023/08/20 06:11:12;;;;;;;31.70;27.10;;;21.00;99.90;;;;;;5059943;28;20936;-84
2023/08/20 06:13:39;;;;;;;30.43;25.77;;;21.10;99.90;;;;;;5055074;28;20452;-83
2023/08/20 06:16:06;;;;;;;32.70;26.03;;;21.10;99.90;;;;;;5059175;28;20464;-83
2023/08/20 06:18:34;;;;;;;33.20;26.57;;;21.10;99.90;;;;;;5060509;28;20458;-81
2023/08/20 06:21:01;;;;;;;31.40;26.30;;;21.20;99.90;;;;;;5060141;28;20448;-83
2023/08/20 06:23:27;;;;;;;31.20;25.30;;;21.20;99.90;;;;;;5060028;28;20583;-82
2023/08/20 06:25:54;;;;;;;27.83;24.37;;;21.30;99.90;;;;;;5058990;28;20478;-82
2023/08/20 06:28:21;;;;;;;34.63;26.07;;;21.30;99.90;;;;;;5060572;28;20963;-82
2023/08/20 06:30:48;;;;;;;30.93;25.27;;;21.40;99.90;;;;;;5058299;28;20452;-84
2023/08/20 06:33:15;;;;;;;28.57;24.50;;;21.50;99.90;;;;;;5062095;28;20448;-83
2023/08/20 06:35:43;;;;;;;28.90;24.83;;;21.50;99.90;;;;;;5056405;28;20496;-82
2023/08/20 06:38:09;;;;;;;39.60;31.00;;;21.50;99.90;;;;;;5061217;28;20470;-85
2023/08/20 06:40:36;;;;;;;39.43;27.47;;;21.50;99.90;;;;;;5057914;28;20971;-83
2023/08/20 06:43:03;;;;;;;34.80;24.20;;;21.50;99.90;;;;;;5054035;28;20499;-84
2023/08/20 06:45:31;;;;;;;34.97;26.10;;;21.50;99.90;;;;;;5058450;28;20555;-85
2023/08/20 06:47:58;;;;;;;40.93;29.07;;;21.50;99.90;;;;;;5059210;28;20538;-85
2023/08/20 06:50:25;;;;;;;34.10;26.97;;;21.50;99.90;;;;;;5059696;28;20532;-84
2023/08/20 06:52:53;;;;;;;34.10;25.47;;;21.50;99.90;;;;;;5061090;28;20451;-84
2023/08/20 06:55:20;;;;;;;35.97;26.87;;;21.60;99.90;;;;;;5058948;28;20460;-79
2023/08/20 06:57:47;;;;;;;30.43;25.83;;;21.60;99.90;;;;;;5059013;28;20459;-84
2023/08/20 07:00:14;;;;;;;28.43;23.17;;;21.60;99.90;;;;;;5059688;28;20443;-82
2023/08/20 07:02:40;;;;;;;30.07;25.23;;;21.60;99.90;;;;;;5059772;28;20487;-83
2023/08/20 07:05:09;;;;;;;30.27;23.93;;;21.60;99.90;;;;;;5060226;28;20507;-83
2023/08/20 07:07:36;;;;;;;29.70;24.27;;;21.70;99.90;;;;;;5058776;28;20502;-83
2023/08/20 07:10:04;;;;;;;33.47;25.47;;;21.70;99.90;;;;;;5053852;28;20456;-82
2023/08/20 07:12:31;;;;;;;33.47;25.17;;;21.80;99.90;;;;;;5055174;28;20522;-84
2023/08/20 07:14:58;;;;;;;28.87;22.33;;;21.90;99.90;;;;;;5047789;28;20460;-84
2023/08/20 07:17:25;;;;;;;27.33;22.60;;;21.90;99.90;;;;;;5055958;28;20836;-84
2023/08/20 07:19:51;;;;;;;29.90;23.57;;;22.00;99.90;;;;;;5059468;28;20462;-84
2023/08/20 07:22:18;;;;;;;27.00;23.30;;;22.10;99.90;;;;;;5058931;28;20484;-84
2023/08/20 07:24:45;;;;;;;25.77;22.83;;;22.10;99.90;;;;;;5058586;28;20451;-84
2023/08/20 07:27:13;;;;;;;25.70;21.40;;;22.20;99.90;;;;;;5057773;28;20542;-83
2023/08/20 07:29:40;;;;;;;26.03;22.87;;;22.20;99.90;;;;;;5055766;28;20460;-83
2023/08/20 07:32:07;;;;;;;28.30;22.40;;;22.30;99.90;;;;;;5057288;28;20535;-84
2023/08/20 07:34:34;;;;;;;25.03;20.20;;;22.30;99.90;;;;;;5052522;28;20987;-83
2023/08/20 07:37:02;;;;;;;24.63;20.87;;;22.30;99.90;;;;;;5084049;22;20502;-82
2023/08/20 07:39:29;;;;;;;23.87;20.23;;;22.40;99.90;;;;;;5053789;28;20464;-81
2023/08/20 07:41:56;;;;;;;26.10;20.47;;;22.40;99.90;;;;;;5065623;28;20454;-84
2023/08/20 07:44:24;;;;;;;23.30;19.27;;;22.40;99.90;;;;;;5069561;28;20470;-84
2023/08/20 07:46:51;;;;;;;22.50;16.97;;;22.50;99.90;;;;;;5057908;28;20474;-83
2023/08/20 07:49:18;;;;;;;22.50;19.73;;;22.60;99.90;;;;;;5055809;28;20479;-84
2023/08/20 07:51:44;;;;;;;23.00;17.80;;;22.70;99.90;;;;;;5042776;28;20456;-84
2023/08/20 07:54:11;;;;;;;22.70;18.80;;;22.80;99.90;;;;;;5054604;28;20473;-83
2023/08/20 07:56:38;;;;;;;20.50;18.00;;;22.70;99.90;;;;;;5045523;28;20488;-85
2023/08/20 07:59:05;;;;;;;17.80;15.90;;;22.80;99.90;;;;;;5046091;28;20489;-82
2023/08/20 08:01:33;;;;;;;20.17;18.07;;;22.90;99.90;;;;;;5045258;28;20467;-82
2023/08/20 08:04:00;;;;;;;18.60;16.30;;;23.00;99.90;;;;;;5044328;28;20567;-82
2023/08/20 08:06:27;;;;;;;17.43;15.60;;;23.10;99.90;;;;;;5057122;28;20484;-84
2023/08/20 08:08:54;;;;;;;18.77;16.40;;;23.10;99.90;;;;;;5046479;28;20468;-80
2023/08/20 08:11:21;;;;;;;20.50;16.00;;;23.20;99.90;;;;;;5050177;28;20519;-82
2023/08/20 08:13:48;;;;;;;17.30;15.40;;;23.30;99.90;;;;;;5053121;28;20505;-82
2023/08/20 08:16:14;;;;;;;17.23;15.43;;;23.40;99.90;;;;;;5050374;28;20476;-82
2023/08/20 08:18:43;;;;;;;17.90;16.10;;;23.40;99.90;;;;;;5049140;28;20456;-81
2023/08/20 08:21:09;;;;;;;15.27;13.77;;;23.50;99.90;;;;;;5056611;28;21030;-83
2023/08/20 08:23:36;;;;;;;15.23;13.73;;;23.50;99.90;;;;;;5057818;28;20511;-82
2023/08/20 08:26:03;;;;;;;18.07;16.23;;;23.60;99.90;;;;;;5049916;28;21083;-82
2023/08/20 08:28:30;;;;;;;15.97;14.27;;;23.70;99.90;;;;;;5061019;28;20443;-81
2023/08/20 08:30:57;;;;;;;18.23;14.37;;;23.70;99.90;;;;;;5061016;28;20508;-82
2023/08/20 08:33:24;;;;;;;16.20;13.37;;;23.80;99.90;;;;;;5058447;28;20515;-81
2023/08/20 08:35:52;;;;;;;14.60;12.90;;;23.90;99.90;;;;;;5060548;28;20488;-82
2023/08/20 08:38:19;;;;;;;15.03;13.47;;;24.00;99.90;;;;;;5069960;28;20480;-81
2023/08/20 08:40:46;;;;;;;12.83;11.40;;;24.10;99.90;;;;;;5069385;28;20580;-81
2023/08/20 08:43:16;;;;;;;14.20;11.63;;;24.20;99.90;;;;;;5069411;28;21098;-81
2023/08/20 08:45:47;;;;;;;11.87;10.67;;;24.30;99.90;;;;;;5065374;28;20531;-82
2023/08/20 08:48:15;;;;;;;11.40;10.20;;;24.30;99.90;;;;;;5069336;28;20454;-81
2023/08/20 08:50:42;;;;;;;9.67;8.63;;;24.40;99.90;;;;;;5070426;28;20452;-83
2023/08/20 08:53:13;;;;;;;8.40;7.37;;;24.50;99.90;;;;;;5070501;28;20503;-82
2023/08/20 08:55:40;;;;;;;7.57;6.83;;;24.50;98.70;;;;;;5070270;28;20491;-82
2023/08/20 08:58:07;;;;;;;8.47;7.67;;;24.50;99.90;;;;;;5052086;28;20468;-84
2023/08/20 09:00:34;;;;;;;8.80;7.90;;;24.50;99.90;;;;;;5055604;28;20468;-82
2023/08/20 09:03:01;;;;;;;9.67;7.57;;;24.40;99.90;;;;;;5070013;28;20947;-82
2023/08/20 09:05:27;;;;;;;7.80;7.10;;;24.40;99.90;;;;;;5073376;28;20525;-83
2023/08/20 09:07:57;;;;;;;8.63;7.50;;;24.40;99.90;;;;;;5066229;28;20544;-82
2023/08/20 09:10:28;;;;;;;8.20;7.40;;;24.50;99.90;;;;;;5054370;28;20553;-83
2023/08/20 09:12:57;;;;;;;8.77;7.00;;;24.70;99.90;;;;;;5061703;28;20429;-80
2023/08/20 09:15:32;;;;;;;7.97;7.23;;;24.90;99.90;;;;;;5052428;28;20478;-81
2023/08/20 09:18:02;;;;;;;7.90;7.07;;;25.00;99.90;;;;;;5061359;28;20510;-80
2023/08/20 09:20:35;;;;;;;7.93;7.03;;;25.00;99.90;;;;;;5068894;28;20468;-80
2023/08/20 09:23:02;;;;;;;9.97;7.53;;;25.00;99.90;;;;;;5059681;28;20523;-81
2023/08/20 09:25:30;;;;;;;9.63;6.83;;;25.00;99.90;;;;;;5047214;28;20469;-78
2023/08/20 09:27:57;;;;;;;9.53;7.60;;;25.10;99.90;;;;;;5059194;28;20551;-80
2023/08/20 09:30:24;;;;;;;8.07;7.27;;;25.00;99.90;;;;;;5044517;28;20524;-80
2023/08/20 09:33:05;;;;;;;7.60;6.90;;;24.90;98.90;;;;;;5039657;28;20504;-78
2023/08/20 09:35:32;;;;;;;7.80;6.37;;;24.90;99.90;;;;;;5059005;28;20623;-79
2023/08/20 09:38:03;;;;;;;7.47;6.83;;;25.10;41.00;;;;;;5056137;28;20498;-77
2023/08/20 09:40:31;;;;;;;7.33;6.63;;;25.40;91.30;;;;;;5057908;28;20448;-78
2023/08/20 09:42:58;;;;;;;7.90;6.30;;;25.70;1.20;;;;;;5057722;28;20550;-78
2023/08/20 09:45:26;;;;;;;7.40;6.70;;;26.00;3.60;;;;;;5054887;28;21125;-79
2023/08/20 09:47:56;;;;;;;7.53;6.83;;;26.10;1.00;;;;;;5018224;28;21024;-79
2023/08/20 09:50:24;;;;;;;7.63;6.80;;;26.20;1.00;;;;;;5057146;28;20452;-81
2023/08/20 09:52:58;;;;;;;6.50;5.90;;;26.50;1.00;;;;;;5052431;28;20475;-80
2023/08/20 09:55:35;;;;;;;6.67;6.07;;;26.90;1.00;;;;;;5034681;28;20870;-81
2023/08/20 09:58:03;;;;;;;7.23;6.63;;;27.20;1.00;;;;;;5036077;28;20445;-78
2023/08/20 10:00:31;;;;;;;6.10;5.60;;;27.30;1.00;;;;;;5036025;28;20957;-79
2023/08/20 10:02:58;;;;;;;6.23;5.63;;;27.30;99.90;;;;;;5035920;28;20481;-79
2023/08/20 10:05:26;;;;;;;6.13;5.53;;;27.30;1.00;;;;;;5035703;28;20533;-78
2023/08/20 10:07:55;;;;;;;7.23;6.10;;;27.20;99.90;;;;;;5035855;28;20480;-77
2023/08/20 10:10:22;;;;;;;7.00;6.37;;;27.20;99.90;;;;;;5030451;28;20881;-79
2023/08/20 10:12:51;;;;;;;6.87;6.17;;;27.30;1.00;;;;;;5035181;28;20437;-79
2023/08/20 10:15:17;;;;;;;7.10;6.40;;;27.30;1.00;;;;;;5035282;28;21032;-77
2023/08/20 10:17:46;;;;;;;7.50;6.70;;;27.20;1.00;;;;;;5032256;28;20467;-80
2023/08/20 10:20:15;;;;;;;7.30;6.60;;;27.10;1.00;;;;;;5028997;28;20805;-81
2023/08/20 10:22:44;;;;;;;6.97;6.30;;;26.90;1.00;;;;;;5032437;28;20457;-81
2023/08/20 10:25:12;;;;;;;6.40;5.80;;;26.90;55.10;;;;;;5028772;28;20536;-79
2023/08/20 10:27:40;;;;;;;8.07;6.93;;;26.80;1.00;;;;;;5043739;28;20449;-81
2023/08/20 10:30:20;;;;;;;7.77;7.10;;;26.60;7.20;;;;;;5029854;28;20453;-79
2023/08/20 10:32:48;;;;;;;8.27;7.17;;;26.40;12.60;;;;;;5034854;28;20473;-78
2023/08/20 10:35:17;;;;;;;8.90;8.00;;;26.50;93.60;;;;;;5036272;28;20456;-79
2023/08/20 10:38:07;;;;;;;12.40;7.93;;;26.80;97.30;;;;;;5035499;28;20458;-78
2023/08/20 10:40:54;;;;;;;8.30;7.57;;;27.30;70.40;;;;;;5036302;28;20452;-78
2023/08/20 10:43:32;;;;;;;7.67;6.97;;;27.90;3.20;;;;;;5016490;28;20551;-80
2023/08/20 10:46:17;;;;;;;7.50;6.80;;;28.20;1.00;;;;;;5016881;28;20856;-78
2023/08/20 10:48:46;;;;;;;8.50;7.60;;;28.20;1.00;;;;;;5017347;28;20484;-81
2023/08/20 10:51:14;;;;;;;7.70;6.90;;;28.00;99.90;;;;;;5026838;28;20465;-80
2023/08/20 10:53:43;;;;;;;7.93;7.20;;;27.80;1.00;;;;;;5041063;28;20477;-79
2023/08/20 10:56:15;;;;;;;8.47;7.70;;;27.60;1.00;;;;;;5040821;28;20476;-80
2023/08/20 10:58:46;;;;;;;7.90;7.10;;;27.40;1.00;;;;;;5041085;28;20510;-79
2023/08/20 11:01:24;;;;;;;8.53;7.40;;;27.10;1.00;;;;;;5042629;28;20476;-79
2023/08/20 11:03:52;;;;;;;8.17;7.33;;;26.80;1.00;;;;;;5042137;28;20494;-80
2023/08/20 11:06:19;;;;;;;7.43;6.73;;;26.70;1.00;;;;;;5041105;28;20487;-81
2023/08/20 11:08:46;;;;;;;9.67;8.07;;;26.60;1.00;;;;;;5042102;28;20476;-81
2023/08/20 11:11:13;;;;;;;8.57;7.87;;;26.80;99.90;;;;;;5042123;28;20445;-82
2023/08/20 11:13:42;;;;;;;12.03;10.70;;;27.30;99.90;;;;;;5040409;28;20523;-81
2023/08/20 11:16:09;;;;;;;12.63;11.30;;;27.70;48.00;;;;;;5041781;28;20493;-80
2023/08/20 11:18:37;;;;;;;12.57;11.27;;;27.70;1.00;;;;;;5043633;28;20456;-80
2023/08/20 11:21:05;;;;;;;12.23;11.03;;;27.70;1.00;;;;;;5042998;28;20480;-80
2023/08/20 11:23:32;;;;;;;13.07;11.73;;;27.60;1.00;;;;;;5041940;28;20484;-79
2023/08/20 11:25:59;;;;;;;14.63;12.27;;;27.60;1.00;;;;;;5040453;28;20540;-81
2023/08/20 11:28:28;;;;;;;13.77;12.47;;;27.80;1.00;;;;;;5043035;28;20437;-80
2023/08/20 11:30:55;;;;;;;13.90;12.50;;;27.80;1.00;;;;;;5041889;28;20452;-81
2023/08/20 11:33:23;;;;;;;13.60;12.27;;;27.70;1.00;;;;;;5043736;28;20463;-81
2023/08/20 11:35:53;;;;;;;13.67;11.83;;;27.50;1.00;;;;;;5043246;28;20501;-82
2023/08/20 11:38:22;;;;;;;13.87;12.57;;;27.40;1.00;;;;;;5042968;28;20444;-81
2023/08/20 11:40:49;;;;;;;14.83;13.63;;;27.20;1.00;;;;;;5042968;28;20634;-81
2023/08/20 11:43:16;;;;;;;15.90;14.37;;;27.10;1.00;;;;;;5043241;28;20536;-81
2023/08/20 11:45:51;;;;;;;16.03;14.67;;;26.90;1.00;;;;;;5045766;28;20476;-81
2023/08/20 11:48:18;;;;;;;15.90;14.40;;;26.80;28.10;;;;;;5046570;28;20480;-82
2023/08/20 11:50:45;;;;;;;15.20;13.90;;;26.60;1.00;;;;;;5047908;28;20460;-81
2023/08/20 11:53:14;;;;;;;16.27;14.83;;;26.60;29.70;;;;;;5046271;28;20456;-81
2023/08/20 11:55:42;;;;;;;17.33;15.73;;;26.80;99.90;;;;;;5045623;28;20540;-81
2023/08/20 11:58:12;;;;;;;16.27;14.77;;;26.90;20.90;;;;;;5046945;28;20448;-81
2023/08/20 12:00:39;;;;;;;17.80;16.20;;;26.90;1.00;;;;;;5046841;28;20449;-81
2023/08/20 12:03:07;;;;;;;16.77;15.27;;;26.90;1.00;;;;;;5046755;28;20492;-80
2023/08/20 12:05:34;;;;;;;18.00;16.40;;;27.10;13.70;;;;;;5046976;28;20483;-80
2023/08/20 12:08:02;;;;;;;18.30;16.60;;;27.30;13.70;;;;;;5048328;28;20463;-81
2023/08/20 12:10:31;;;;;;;15.80;14.30;;;27.80;1.00;;;;;;5048547;28;20483;-81
2023/08/20 12:12:59;;;;;;;16.50;15.10;;;27.80;1.00;;;;;;5047065;28;20469;-81
2023/08/20 12:15:26;;;;;;;13.67;12.37;;;27.60;99.90;;;;;;5047177;28;21032;-82
2023/08/20 12:18:00;;;;;;;14.43;13.23;;;27.40;1.00;;;;;;5047831;28;20479;-81
2023/08/20 12:20:29;;;;;;;13.43;12.33;;;27.30;1.00;;;;;;5046073;28;20536;-82
2023/08/20 12:22:56;;;;;;;12.60;11.60;;;27.20;1.00;;;;;;5047769;28;20448;-80
2023/08/20 12:25:23;;;;;;;14.43;13.03;;;27.20;1.00;;;;;;5046518;28;20484;-81
2023/08/20 12:27:51;;;;;;;11.37;10.40;;;27.40;51.70;;;;;;5046518;28;20488;-81
2023/08/20 12:30:18;;;;;;;10.90;9.80;;;27.70;1.00;;;;;;5046901;28;20484;-81
2023/08/20 12:32:45;;;;;;;12.23;10.00;;;28.00;1.00;;;;;;5044520;28;20536;-79
2023/08/20 12:35:12;;;;;;;9.20;8.50;;;28.20;99.90;;;;;;5035752;28;20444;-79
2023/08/20 12:37:39;;;;;;;9.37;8.57;;;28.30;99.90;;;;;;5036870;28;20488;-79